createdAt,value
2022-11-03T00:01:51.409Z,10.60
2022-11-03T00:04:20.951Z,10.60
2022-11-03T00:06:50.725Z,10.70
2022-11-03T00:09:20.369Z,10.60
2022-11-03T00:11:50.717Z,10.60
2022-11-03T00:14:19.430Z,10.40
2022-11-03T00:16:49.053Z,10.20
2022-11-03T00:19:17.510Z,10.20
2022-11-03T00:21:46.455Z,10.10
2022-11-03T00:24:14.941Z,10.20
2022-11-03T00:26:42.934Z,10.10
2022-11-03T00:29:12.484Z,10.10
2022-11-03T00:31:42.398Z,10.00
2022-11-03T00:34:12.375Z,10.00
2022-11-03T00:36:41.654Z,10.00
2022-11-03T00:39:10.194Z,10.00
2022-11-03T00:41:38.826Z,9.90
2022-11-03T00:44:07.237Z,9.90
2022-11-03T00:46:36.064Z,9.90
2022-11-03T00:49:04.828Z,9.90
2022-11-03T00:51:36.089Z,9.80
2022-11-03T00:54:07.061Z,9.70
2022-11-03T00:56:37.025Z,9.70
2022-11-03T00:59:06.187Z,9.80
2022-11-03T01:01:40.547Z,9.70
2022-11-03T01:04:29.914Z,9.60
2022-11-03T01:07:01.197Z,9.50
2022-11-03T01:09:31.103Z,9.60
2022-11-03T01:12:01.662Z,9.60
2022-11-03T01:14:31.955Z,9.80
2022-11-03T01:17:00.324Z,9.80
2022-11-03T01:19:28.331Z,9.90
2022-11-03T01:21:56.271Z,10.00
2022-11-03T01:24:25.869Z,10.10
2022-11-03T01:26:53.810Z,10.10
2022-11-03T01:29:22.267Z,10.10
2022-11-03T01:31:50.461Z,10.10
2022-11-03T01:34:21.247Z,10.10
2022-11-03T01:36:49.612Z,10.20
2022-11-03T01:39:19.086Z,10.30
2022-11-03T01:41:50.254Z,10.40
2022-11-03T01:44:34.531Z,10.30
2022-11-03T01:47:08.414Z,10.30
2022-11-03T01:49:43.131Z,10.20
2022-11-03T01:52:16.407Z,10.10
2022-11-03T01:54:49.533Z,10.10
2022-11-03T01:57:23.744Z,10.00
2022-11-03T01:59:52.588Z,10.00
2022-11-03T02:02:20.891Z,10.00
2022-11-03T02:04:49.353Z,10.00
2022-11-03T02:07:25.031Z,9.90
2022-11-03T02:09:53.223Z,10.00
2022-11-03T02:12:24.135Z,10.10
2022-11-03T02:14:55.867Z,10.20
2022-11-03T02:17:26.873Z,10.40
2022-11-03T02:19:59.171Z,10.40
2022-11-03T02:22:47.881Z,10.50
2022-11-03T02:25:20.544Z,10.50
2022-11-03T02:27:50.000Z,10.60
2022-11-03T02:30:18.129Z,10.50
2022-11-03T02:32:56.392Z,10.60
2022-11-03T02:35:31.392Z,10.70
2022-11-03T02:38:02.420Z,10.70
2022-11-03T02:40:34.157Z,10.80
2022-11-03T02:43:05.579Z,10.80
2022-11-03T02:45:34.086Z,10.70
2022-11-03T02:48:04.084Z,10.70
2022-11-03T02:50:34.922Z,10.60
2022-11-03T02:53:03.521Z,10.60
2022-11-03T02:55:38.036Z,10.50
2022-11-03T02:58:18.047Z,10.60
2022-11-03T03:01:03.997Z,10.50
2022-11-03T03:03:36.720Z,10.50
2022-11-03T03:06:07.497Z,10.60
2022-11-03T03:08:38.359Z,10.60
2022-11-03T03:11:08.985Z,10.70
2022-11-03T03:13:38.479Z,10.70
2022-11-03T03:16:13.049Z,10.50
2022-11-03T03:18:49.972Z,10.40
2022-11-03T03:21:22.253Z,10.40
2022-11-03T03:23:55.918Z,10.50
2022-11-03T03:26:29.303Z,10.50
2022-11-03T03:29:02.859Z,10.60
2022-11-03T03:31:35.337Z,10.60
2022-11-03T03:34:05.117Z,10.60
2022-11-03T03:36:48.296Z,10.60
2022-11-03T03:39:18.023Z,10.60
2022-11-03T03:41:47.660Z,10.60
2022-11-03T03:44:18.409Z,10.60
2022-11-03T03:46:52.728Z,10.60
2022-11-03T03:49:21.085Z,10.50
2022-11-03T03:51:51.392Z,10.50
2022-11-03T03:54:19.381Z,10.40
2022-11-03T03:56:53.482Z,10.40
2022-11-03T03:59:23.057Z,10.50
2022-11-03T04:01:51.205Z,10.50
2022-11-03T04:04:19.266Z,10.50
2022-11-03T04:06:47.216Z,10.50
2022-11-03T04:09:15.410Z,10.60
2022-11-03T04:12:00.837Z,10.60
2022-11-03T04:14:47.787Z,10.60
2022-11-03T04:17:38.957Z,10.60
2022-11-03T04:20:31.267Z,10.60
2022-11-03T04:22:59.545Z,10.60
2022-11-03T04:25:27.548Z,10.60
2022-11-03T04:27:55.587Z,10.50
2022-11-03T04:30:26.341Z,10.50
2022-11-03T04:32:54.402Z,10.50
2022-11-03T04:35:25.234Z,10.50
2022-11-03T04:37:57.199Z,10.40
2022-11-03T04:40:25.621Z,10.40
2022-11-03T04:42:54.134Z,10.40
2022-11-03T04:45:27.272Z,10.40
2022-11-03T04:47:56.041Z,10.30
2022-11-03T04:50:24.798Z,10.30
2022-11-03T04:52:56.539Z,10.10
2022-11-03T04:55:25.185Z,10.00
2022-11-03T04:57:59.389Z,10.00
2022-11-03T05:00:29.061Z,9.90
2022-11-03T05:02:57.474Z,9.90
2022-11-03T05:05:27.002Z,9.90
2022-11-03T05:07:57.563Z,9.90
2022-11-03T05:10:27.323Z,10.00
2022-11-03T05:12:56.099Z,10.10
2022-11-03T05:15:34.966Z,10.10
2022-11-03T05:18:07.940Z,10.20
2022-11-03T05:20:38.265Z,10.20
2022-11-03T05:23:07.132Z,10.20
2022-11-03T05:25:43.099Z,10.30
2022-11-03T05:28:20.497Z,10.30
2022-11-03T05:30:50.821Z,10.30
2022-11-03T05:33:30.271Z,10.40
2022-11-03T05:36:01.832Z,10.40
2022-11-03T05:38:32.800Z,10.40
2022-11-03T05:41:02.402Z,10.40
2022-11-03T05:43:30.779Z,10.40
2022-11-03T05:46:03.658Z,10.40
2022-11-03T05:48:35.450Z,10.40
2022-11-03T05:51:16.950Z,10.40
2022-11-03T05:53:45.113Z,10.40
2022-11-03T05:56:18.163Z,10.40
2022-11-03T05:58:47.497Z,10.30
2022-11-03T06:01:20.661Z,10.40
2022-11-03T06:03:48.937Z,10.40
2022-11-03T06:06:21.905Z,10.40
2022-11-03T06:08:50.564Z,10.40
2022-11-03T06:11:26.827Z,10.40
2022-11-03T06:13:57.653Z,10.40
2022-11-03T06:16:39.894Z,10.30
2022-11-03T06:19:20.839Z,10.40
2022-11-03T06:21:49.751Z,10.30
2022-11-03T06:24:20.553Z,10.40
2022-11-03T06:26:50.853Z,10.30
2022-11-03T06:29:21.636Z,10.30
2022-11-03T06:31:53.360Z,10.40
2022-11-03T06:34:34.969Z,10.40
2022-11-03T06:37:14.231Z,10.30
2022-11-03T06:39:42.344Z,10.30
2022-11-03T06:42:33.179Z,10.30
2022-11-03T06:45:13.129Z,10.30
2022-11-03T06:47:43.170Z,10.30
2022-11-03T06:50:23.164Z,10.40
2022-11-03T06:52:51.431Z,10.30
2022-11-03T06:55:27.415Z,10.40
2022-11-03T06:57:59.367Z,10.40
2022-11-03T07:00:39.643Z,10.30
2022-11-03T07:03:15.231Z,10.10
2022-11-03T07:05:45.093Z,10.10
2022-11-03T07:08:21.575Z,10.00
2022-11-03T07:10:51.538Z,10.10
2022-11-03T07:13:23.725Z,10.10
2022-11-03T07:15:52.188Z,10.20
2022-11-03T07:18:28.034Z,10.20
2022-11-03T07:20:58.180Z,10.20
2022-11-03T07:23:30.178Z,10.30
2022-11-03T07:26:01.215Z,10.30
2022-11-03T07:28:35.249Z,10.30
2022-11-03T07:31:16.395Z,10.30
2022-11-03T07:33:47.054Z,10.30
2022-11-03T07:36:20.729Z,10.40
2022-11-03T07:38:52.659Z,10.40
2022-11-03T07:41:23.401Z,10.50
2022-11-03T07:43:56.477Z,10.50
2022-11-03T07:46:25.859Z,10.50
2022-11-03T07:48:57.865Z,10.50
2022-11-03T07:51:29.759Z,10.50
2022-11-03T07:54:02.941Z,10.60
2022-11-03T07:56:36.577Z,10.60
2022-11-03T07:59:12.892Z,10.60
2022-11-03T08:01:44.070Z,10.60
2022-11-03T08:04:18.152Z,10.60
2022-11-03T08:06:46.117Z,10.60
2022-11-03T08:09:14.074Z,10.70
2022-11-03T08:11:42.136Z,10.70
2022-11-03T08:14:10.444Z,10.80
2022-11-03T08:16:38.635Z,10.80
2022-11-03T08:19:07.054Z,10.80
2022-11-03T08:21:36.656Z,10.80
2022-11-03T08:24:06.648Z,10.90
2022-11-03T08:26:34.819Z,10.90
2022-11-03T08:29:02.794Z,11.00
2022-11-03T08:31:30.952Z,11.10
2022-11-03T08:33:59.025Z,11.10
2022-11-03T08:36:27.011Z,11.20
2022-11-03T08:38:58.468Z,11.20
2022-11-03T08:41:26.432Z,11.20
2022-11-03T08:43:54.508Z,11.30
2022-11-03T08:46:22.517Z,11.40
2022-11-03T08:48:51.850Z,11.50
2022-11-03T08:51:19.989Z,11.60
2022-11-03T08:53:50.584Z,11.60
2022-11-03T08:56:22.315Z,11.70
2022-11-03T08:58:50.893Z,11.80
2022-11-03T09:01:19.070Z,11.80
2022-11-03T09:03:47.221Z,11.80
2022-11-03T09:06:15.426Z,11.90
2022-11-03T09:11:32.837Z,11.80
2022-11-03T09:14:00.900Z,11.70
2022-11-03T09:16:29.035Z,11.70
2022-11-03T09:18:57.108Z,11.80
2022-11-03T09:21:25.153Z,11.90
2022-11-03T09:23:53.450Z,11.90
2022-11-03T09:26:21.811Z,12.00
2022-11-03T09:28:51.359Z,12.10
2022-11-03T09:31:19.434Z,12.30
2022-11-03T09:33:47.431Z,12.40
2022-11-03T09:36:15.743Z,12.50
2022-11-03T09:38:43.832Z,12.60
2022-11-03T09:41:26.207Z,12.70
2022-11-03T09:43:58.391Z,12.80
2022-11-03T09:46:27.963Z,12.90
2022-11-03T09:49:04.155Z,13.00
2022-11-03T09:51:33.192Z,12.90
2022-11-03T09:54:04.880Z,12.90
2022-11-03T09:56:36.712Z,12.80
2022-11-03T09:59:16.793Z,12.90
2022-11-03T10:01:48.773Z,12.90
2022-11-03T10:04:17.838Z,12.90
2022-11-03T10:06:45.796Z,13.00
2022-11-03T10:09:18.796Z,13.00
2022-11-03T10:11:47.830Z,13.20
2022-11-03T10:14:19.355Z,13.30
2022-11-03T10:17:00.228Z,13.40
2022-11-03T10:19:28.890Z,13.30
2022-11-03T10:21:56.951Z,13.30
2022-11-03T10:24:26.295Z,13.30
2022-11-03T10:26:55.943Z,13.20
2022-11-03T10:29:26.548Z,13.10
2022-11-03T10:31:56.787Z,13.10
2022-11-03T10:34:28.077Z,13.00
2022-11-03T10:37:17.194Z,13.10
2022-11-03T10:39:45.605Z,13.10
2022-11-03T10:42:21.535Z,13.00
2022-11-03T10:44:53.700Z,13.00
2022-11-03T10:47:34.924Z,13.00
2022-11-03T10:50:21.000Z,13.10
2022-11-03T10:52:49.065Z,13.10
2022-11-03T10:55:20.585Z,13.10
2022-11-03T10:57:53.327Z,13.10
2022-11-03T11:00:24.106Z,13.10
2022-11-03T11:02:56.755Z,13.10
2022-11-03T11:05:25.143Z,13.20
2022-11-03T11:07:56.372Z,13.20
2022-11-03T11:10:26.873Z,13.20
2022-11-03T11:13:25.612Z,13.30
2022-11-03T11:15:56.904Z,13.30
2022-11-03T11:19:11.441Z,13.30
2022-11-03T11:22:02.674Z,13.30
2022-11-03T11:24:59.833Z,13.40
2022-11-03T11:28:07.547Z,13.50
2022-11-03T11:31:23.740Z,13.60
2022-11-03T11:34:31.432Z,13.70
2022-11-03T11:37:36.726Z,13.80
2022-11-03T11:40:14.023Z,14.00
2022-11-03T11:43:33.091Z,14.00
2022-11-03T11:46:41.278Z,14.10
2022-11-03T11:49:19.052Z,14.20
2022-11-03T11:51:47.926Z,14.30
2022-11-03T11:54:21.549Z,14.30
2022-11-03T11:56:50.629Z,14.20
2022-11-03T11:59:25.371Z,14.30
2022-11-03T12:02:19.469Z,14.30
2022-11-03T12:04:48.412Z,14.30
2022-11-03T12:07:16.457Z,14.20
2022-11-03T12:09:45.849Z,14.20
2022-11-03T12:12:33.909Z,14.20
2022-11-03T12:15:01.976Z,14.20
2022-11-03T12:17:34.190Z,14.30
2022-11-03T12:20:02.280Z,14.30
2022-11-03T12:22:43.720Z,14.30
2022-11-03T12:25:37.115Z,14.30
2022-11-03T12:28:05.689Z,14.40
2022-11-03T12:30:39.492Z,14.40
2022-11-03T12:33:08.383Z,14.40
2022-11-03T12:35:36.668Z,14.40
2022-11-03T12:38:04.611Z,14.50
2022-11-03T12:40:33.921Z,14.50
2022-11-03T12:43:01.888Z,14.50
2022-11-03T12:45:29.888Z,14.50
2022-11-03T12:47:57.896Z,14.50
2022-11-03T12:50:25.831Z,14.40
2022-11-03T12:52:54.123Z,14.40
2022-11-03T12:55:22.164Z,14.40
2022-11-03T12:57:51.764Z,14.40
2022-11-03T13:00:19.977Z,14.40
2022-11-03T13:02:48.189Z,14.40
2022-11-03T13:05:16.374Z,14.40
2022-11-03T13:07:44.514Z,14.40
2022-11-03T13:10:12.555Z,14.40
2022-11-03T13:12:41.628Z,14.30
2022-11-03T13:15:13.528Z,14.30
2022-11-03T13:20:29.712Z,14.40
2022-11-03T13:22:57.723Z,14.40
2022-11-03T13:25:25.889Z,14.30
2022-11-03T13:27:54.842Z,14.30
2022-11-03T13:30:25.446Z,14.30
2022-11-03T13:32:54.069Z,14.30
2022-11-03T13:35:22.087Z,14.30
2022-11-03T13:37:50.186Z,14.30
2022-11-03T13:40:42.694Z,14.20
2022-11-03T13:43:06.519Z,14.10
2022-11-03T13:45:36.139Z,14.10
2022-11-03T13:50:53.736Z,14.10
2022-11-03T13:56:13.375Z,14.10
2022-11-03T14:01:35.184Z,14.10
2022-11-03T14:06:51.828Z,14.10
2022-11-03T14:09:19.924Z,14.00
2022-11-03T14:12:05.261Z,14.00
2022-11-03T14:14:33.589Z,14.00
2022-11-03T14:17:06.169Z,14.10
2022-11-03T14:19:44.796Z,14.10
2022-11-03T14:22:17.322Z,14.10
2022-11-03T14:24:46.112Z,14.10
2022-11-03T14:27:17.171Z,14.10
2022-11-03T14:29:46.068Z,14.10
2022-11-03T14:32:15.768Z,14.10
2022-11-03T14:34:45.485Z,14.10
2022-11-03T14:37:13.866Z,14.10
2022-11-03T14:39:43.073Z,14.10
2022-11-03T14:42:15.506Z,14.00
2022-11-03T14:44:45.256Z,14.00
2022-11-03T14:47:17.561Z,14.00
2022-11-03T14:49:46.206Z,13.90
2022-11-03T14:52:18.283Z,13.90
2022-11-03T14:54:46.463Z,13.80
2022-11-03T14:57:14.785Z,13.70
2022-11-03T14:59:42.859Z,13.70
2022-11-03T15:02:11.847Z,13.60
2022-11-03T15:04:42.067Z,13.60
2022-11-03T15:07:10.202Z,13.60
2022-11-03T15:09:38.279Z,13.60
2022-11-03T15:12:06.464Z,13.50
2022-11-03T15:14:34.744Z,13.50
2022-11-03T15:17:03.229Z,13.50
2022-11-03T15:19:31.290Z,13.50
2022-11-03T15:22:00.807Z,13.40
2022-11-03T15:27:17.232Z,13.40
2022-11-03T15:29:45.357Z,13.40
2022-11-03T15:32:13.961Z,13.30
2022-11-03T15:34:42.341Z,13.20
2022-11-03T15:37:11.837Z,13.10
2022-11-03T15:39:39.874Z,13.10
2022-11-03T15:42:07.782Z,13.00
2022-11-03T15:44:36.093Z,13.00
2022-11-03T15:47:04.348Z,13.00
2022-11-03T15:49:32.428Z,13.00
2022-11-03T15:52:00.495Z,12.90
2022-11-03T15:54:30.063Z,12.90
2022-11-03T15:56:58.118Z,13.00
2022-11-03T15:59:26.345Z,13.00
2022-11-03T16:02:03.642Z,13.00
2022-11-03T16:04:42.792Z,13.00
2022-11-03T16:07:10.797Z,13.10
2022-11-03T16:09:40.268Z,13.10
2022-11-03T16:12:09.107Z,13.10
2022-11-03T16:14:37.130Z,13.10
2022-11-03T16:17:06.930Z,13.00
2022-11-03T16:19:34.961Z,13.00
2022-11-03T16:22:02.997Z,13.00
2022-11-03T16:24:35.124Z,13.00
2022-11-03T16:27:05.074Z,13.00
2022-11-03T16:29:33.352Z,13.00
2022-11-03T16:32:01.510Z,13.00
2022-11-03T16:34:29.543Z,13.00
2022-11-03T16:36:57.543Z,13.00
2022-11-03T16:39:25.662Z,13.00
2022-11-03T16:41:55.130Z,12.90
2022-11-03T16:44:24.742Z,12.90
2022-11-03T16:47:11.659Z,12.90
2022-11-03T16:49:41.667Z,12.80
2022-11-03T16:52:10.125Z,12.70
2022-11-03T16:54:39.313Z,12.60
2022-11-03T16:57:07.342Z,12.60
2022-11-03T16:59:36.859Z,12.60
2022-11-03T17:02:05.201Z,12.60
2022-11-03T17:04:33.544Z,12.60
2022-11-03T17:07:01.571Z,12.60
2022-11-03T17:09:29.974Z,12.70
2022-11-03T17:11:58.026Z,12.70
2022-11-03T17:14:26.006Z,12.70
2022-11-03T17:16:57.831Z,12.70
2022-11-03T17:19:25.933Z,12.70
2022-11-03T17:21:54.017Z,12.70
2022-11-03T17:24:22.084Z,12.70
2022-11-03T17:26:55.731Z,12.60
2022-11-03T17:29:30.056Z,12.60
2022-11-03T17:31:59.728Z,12.50
2022-11-03T17:34:27.964Z,12.50
2022-11-03T17:36:56.148Z,12.50
2022-11-03T17:39:30.056Z,12.40
2022-11-03T17:42:19.870Z,12.40
2022-11-03T17:44:49.595Z,12.30
2022-11-03T17:47:20.517Z,12.40
2022-11-03T17:49:49.665Z,12.30
2022-11-03T17:52:25.091Z,12.30
2022-11-03T17:54:58.185Z,12.30
2022-11-03T17:57:27.582Z,12.30
2022-11-03T17:59:58.365Z,12.30
2022-11-03T18:02:30.490Z,12.30
2022-11-03T18:05:16.870Z,12.30
2022-11-03T18:07:48.522Z,12.20
2022-11-03T18:10:16.680Z,12.30
2022-11-03T18:13:05.393Z,12.30
2022-11-03T18:15:36.702Z,12.30
2022-11-03T18:18:23.816Z,12.30
2022-11-03T18:20:54.216Z,12.30
2022-11-03T18:23:25.072Z,12.30
2022-11-03T18:25:53.669Z,12.30
2022-11-03T18:28:22.156Z,12.30
2022-11-03T18:30:52.688Z,12.30
2022-11-03T18:33:25.819Z,12.30
2022-11-03T18:35:54.808Z,12.30
2022-11-03T18:38:25.137Z,12.30
2022-11-03T18:40:53.430Z,12.30
2022-11-03T18:43:22.995Z,12.30
2022-11-03T18:45:52.578Z,12.30
2022-11-03T18:48:22.056Z,12.20
2022-11-03T18:50:52.100Z,12.20
2022-11-03T18:53:22.077Z,12.20
2022-11-03T18:55:50.548Z,12.20
2022-11-03T18:58:20.952Z,12.20
2022-11-03T19:00:49.439Z,12.20
2022-11-03T19:03:19.745Z,12.20
2022-11-03T19:05:51.732Z,12.20
2022-11-03T19:08:23.124Z,12.20
2022-11-03T19:10:52.437Z,12.20
2022-11-03T19:13:26.862Z,12.10
2022-11-03T19:15:55.193Z,12.10
2022-11-03T19:18:23.594Z,12.20
2022-11-03T19:20:53.069Z,12.20
2022-11-03T19:23:21.150Z,12.20
2022-11-03T19:25:58.502Z,12.30
2022-11-03T19:28:29.667Z,12.40
2022-11-03T19:30:58.690Z,12.40
2022-11-03T19:33:30.687Z,12.40
2022-11-03T19:36:00.436Z,12.40
2022-11-03T19:38:28.535Z,12.30
2022-11-03T19:41:13.892Z,12.20
2022-11-03T19:43:42.375Z,12.10
2022-11-03T19:46:17.216Z,12.10
2022-11-03T19:48:45.280Z,12.00
2022-11-03T19:51:15.134Z,12.10
2022-11-03T19:53:47.016Z,12.10
2022-11-03T19:56:16.880Z,12.20
2022-11-03T19:58:45.003Z,12.20
2022-11-03T20:01:13.561Z,12.20
2022-11-03T20:03:41.662Z,12.20
2022-11-03T20:06:11.208Z,12.20
2022-11-03T20:08:41.027Z,12.20
2022-11-03T20:11:09.220Z,12.20
2022-11-03T20:13:41.641Z,12.20
2022-11-03T20:16:13.978Z,12.20
2022-11-03T20:18:42.129Z,12.20
2022-11-03T20:21:15.753Z,12.30
2022-11-03T20:23:46.267Z,12.20
2022-11-03T20:26:15.908Z,12.30
2022-11-03T20:28:44.353Z,12.30
2022-11-03T20:31:13.240Z,12.30
2022-11-03T20:33:41.424Z,12.30
2022-11-03T20:36:15.815Z,12.20
2022-11-03T20:38:47.503Z,12.20
2022-11-03T20:41:16.713Z,12.10
2022-11-03T20:43:47.768Z,12.10
2022-11-03T20:46:23.854Z,12.10
2022-11-03T20:48:52.411Z,12.10
2022-11-03T20:51:22.552Z,12.10
2022-11-03T20:53:52.420Z,12.10
2022-11-03T20:56:22.270Z,12.10
2022-11-03T20:58:50.835Z,12.10
2022-11-03T21:01:21.009Z,12.20
2022-11-03T21:04:04.633Z,12.20
2022-11-03T21:06:33.729Z,12.20
2022-11-03T21:09:03.351Z,12.30
2022-11-03T21:11:39.709Z,12.30
2022-11-03T21:14:15.228Z,12.30
2022-11-03T21:17:00.683Z,12.30
2022-11-03T21:19:48.449Z,12.20
2022-11-03T21:22:50.327Z,12.20
2022-11-03T21:25:13.368Z,12.20
2022-11-03T21:27:42.052Z,12.20
2022-11-03T21:30:12.352Z,12.20
2022-11-03T21:32:40.606Z,12.20
2022-11-03T21:35:12.436Z,12.20
2022-11-03T21:37:40.440Z,12.30
2022-11-03T21:40:13.155Z,12.30
2022-11-03T21:42:58.496Z,12.30
2022-11-03T21:45:26.739Z,12.30
2022-11-03T21:48:14.426Z,12.20
2022-11-03T21:50:43.163Z,12.20
2022-11-03T21:53:12.214Z,12.30
2022-11-03T21:55:42.245Z,12.20
2022-11-03T21:58:10.756Z,12.10
2022-11-03T22:00:38.811Z,12.10
2022-11-03T22:03:07.214Z,12.10
2022-11-03T22:05:35.908Z,12.00
2022-11-03T22:08:04.061Z,11.90
2022-11-03T22:10:32.489Z,11.80
2022-11-03T22:13:02.044Z,11.80
2022-11-03T22:15:47.404Z,11.90
2022-11-03T22:18:15.602Z,11.90
2022-11-03T22:21:01.023Z,11.90
2022-11-03T22:23:46.266Z,11.90
2022-11-03T22:26:39.914Z,11.80
2022-11-03T22:29:26.856Z,11.80
2022-11-03T22:31:55.016Z,11.80
2022-11-03T22:34:40.379Z,11.80
2022-11-03T22:37:08.462Z,11.80
2022-11-03T22:39:53.840Z,11.80
2022-11-03T22:42:53.708Z,11.90
2022-11-03T22:45:40.318Z,11.90
2022-11-03T22:48:08.560Z,11.90
2022-11-03T22:50:36.613Z,11.90
2022-11-03T22:53:24.951Z,11.90
2022-11-03T22:55:52.323Z,11.90
2022-11-03T22:58:20.545Z,11.90
2022-11-03T23:00:50.077Z,11.90
2022-11-03T23:03:18.285Z,11.80
2022-11-03T23:05:46.317Z,11.70
2022-11-03T23:08:14.392Z,11.80
2022-11-03T23:10:43.389Z,11.70
2022-11-03T23:13:11.588Z,11.80
2022-11-03T23:15:43.683Z,11.80
2022-11-03T23:18:30.486Z,11.70
2022-11-03T23:21:10.339Z,11.60
2022-11-03T23:23:57.461Z,11.50
2022-11-03T23:26:27.550Z,11.50
2022-11-03T23:28:56.157Z,11.50
2022-11-03T23:31:24.367Z,11.50
2022-11-03T23:33:53.877Z,11.50
2022-11-03T23:36:22.024Z,11.40
2022-11-03T23:38:50.197Z,11.40
2022-11-03T23:41:19.412Z,11.30
2022-11-03T23:43:48.049Z,11.30
2022-11-03T23:46:35.300Z,11.30
2022-11-03T23:49:07.654Z,11.30
2022-11-03T23:51:37.025Z,11.20
2022-11-03T23:54:06.887Z,11.30
2022-11-03T23:56:54.426Z,11.20
2022-11-03T23:59:22.840Z,11.10
